Edgewood, South Carolina
Current Conditions -  °F | °C
As of 3:53 AM on Monday 24 Nov 2014 (Local Time) from KCUB Reporting Station
Overcast Overcast  
Wind Chill: 66°   Ceiling: 2200
Heat Index: 66°   Visibility: 10mi
Dew Point: 61°   Wind: 5mph
Humidity: 84%   Direction: 250°WSW
Pressure: 29.8"   Gusts: NA
Location:  34.0268°N, 81.0007°W
Report Text: KCUB 240853Z AUTO 25004KT 10SM OVC022 19/16 A2980 RMK AO2 SLP091 T01890161 51009
Loading
Personal Weather Stations






























Interactive Weather Map New forecast layout! Learn more

10-Day Weather Forecast

Advertisements
Track Severe Weather on mobile